createdAt,value
2023-02-02T00:00:47.044Z,11.33
2023-02-02T00:02:49.089Z,11.36
2023-02-02T00:04:51.092Z,11.31
2023-02-02T00:06:54.369Z,11.09
2023-02-02T00:08:58.146Z,11.20
2023-02-02T00:11:00.101Z,10.84
2023-02-02T00:13:02.095Z,11.13
2023-02-02T00:15:04.502Z,11.28
2023-02-02T00:17:11.094Z,11.31
2023-02-02T00:19:17.112Z,11.23
2023-02-02T00:21:19.129Z,11.02
2023-02-02T00:23:21.194Z,11.11
2023-02-02T00:25:23.673Z,11.26
2023-02-02T00:27:25.940Z,11.32
2023-02-02T00:29:30.622Z,11.31
2023-02-02T00:31:32.758Z,11.15
2023-02-02T00:33:34.939Z,11.27
2023-02-02T00:35:40.087Z,11.38
2023-02-02T00:37:42.559Z,11.27
2023-02-02T00:39:44.521Z,11.32
2023-02-02T00:41:46.908Z,11.23
2023-02-02T00:44:08.760Z,11.19
2023-02-02T00:46:17.155Z,11.28
2023-02-02T00:48:19.114Z,11.26
2023-02-02T00:50:21.662Z,11.21
2023-02-02T00:52:23.654Z,11.31
2023-02-02T00:54:25.561Z,11.38
2023-02-02T00:56:27.682Z,11.37
2023-02-02T00:58:29.568Z,11.34
2023-02-02T01:00:31.437Z,11.37
2023-02-02T01:02:35.504Z,11.39
2023-02-02T01:04:37.499Z,11.24
2023-02-02T01:06:39.467Z,11.38
2023-02-02T01:08:41.369Z,11.41
2023-02-02T01:10:43.233Z,11.36
2023-02-02T01:12:45.663Z,11.33
2023-02-02T01:14:47.658Z,11.41
2023-02-02T01:16:49.589Z,11.38
2023-02-02T01:18:52.394Z,11.29
2023-02-02T01:21:00.681Z,11.33
2023-02-02T01:23:02.679Z,11.32
2023-02-02T01:25:05.768Z,11.37
2023-02-02T01:27:07.788Z,11.27
2023-02-02T01:29:09.749Z,11.32
2023-02-02T01:31:14.676Z,11.35
2023-02-02T01:33:17.820Z,11.28
2023-02-02T01:35:19.775Z,11.28
2023-02-02T01:37:22.384Z,11.04
2023-02-02T01:39:24.971Z,11.32
2023-02-02T01:41:29.054Z,11.31
2023-02-02T01:43:40.541Z,11.26
2023-02-02T01:45:42.540Z,11.28
2023-02-02T01:47:50.628Z,11.24
2023-02-02T01:49:55.097Z,11.16
2023-02-02T01:52:00.215Z,11.19
2023-02-02T01:54:03.394Z,11.25
2023-02-02T01:56:07.209Z,11.10
2023-02-02T01:58:14.789Z,10.95
2023-02-02T02:00:18.967Z,10.95
2023-02-02T02:02:21.383Z,11.04
2023-02-02T02:04:26.533Z,10.95
2023-02-02T02:06:29.231Z,11.06
2023-02-02T02:08:35.968Z,11.02
2023-02-02T02:10:37.970Z,10.95
2023-02-02T02:12:39.956Z,10.99
2023-02-02T02:14:47.226Z,10.97
2023-02-02T02:16:53.675Z,10.84
2023-02-02T02:19:04.907Z,10.85
2023-02-02T02:21:16.115Z,10.80
2023-02-02T02:23:27.298Z,10.72
2023-02-02T02:25:45.911Z,10.90
2023-02-02T02:27:52.432Z,10.90
2023-02-02T02:30:06.138Z,10.86
2023-02-02T02:32:12.527Z,11.05
2023-02-02T02:34:20.952Z,11.05
2023-02-02T02:36:29.212Z,10.98
2023-02-02T02:38:41.153Z,11.05
2023-02-02T02:40:49.981Z,11.07
2023-02-02T02:42:59.547Z,11.15
2023-02-02T02:45:04.163Z,11.24
2023-02-02T02:47:06.466Z,11.21
2023-02-02T02:49:11.251Z,11.18
2023-02-02T02:51:19.476Z,11.31
2023-02-02T02:53:23.847Z,11.23
2023-02-02T02:55:33.961Z,11.27
2023-02-02T02:57:40.392Z,11.17
2023-02-02T02:59:48.515Z,11.18
2023-02-02T03:01:59.852Z,11.18
2023-02-02T03:04:12.856Z,11.24
2023-02-02T03:06:21.139Z,11.16
2023-02-02T03:08:29.343Z,11.14
2023-02-02T03:10:32.943Z,11.13
2023-02-02T03:12:43.224Z,11.08
2023-02-02T03:14:45.205Z,11.17
2023-02-02T03:16:47.287Z,11.20
2023-02-02T03:18:49.254Z,10.98
2023-02-02T03:20:51.209Z,11.07
2023-02-02T03:22:53.151Z,11.13
2023-02-02T03:24:55.156Z,10.85
2023-02-02T03:26:57.319Z,10.88
2023-02-02T03:29:00.620Z,10.91
2023-02-02T03:31:02.965Z,10.72
2023-02-02T03:33:06.185Z,10.73
2023-02-02T03:35:09.466Z,10.66
2023-02-02T03:37:11.414Z,10.80
2023-02-02T03:39:13.433Z,10.70
2023-02-02T03:41:15.397Z,10.63
2023-02-02T03:43:22.585Z,10.77
2023-02-02T03:45:27.899Z,10.64
2023-02-02T03:47:30.445Z,10.57
2023-02-02T03:49:32.433Z,10.60
2023-02-02T03:51:34.325Z,10.72
2023-02-02T03:53:36.281Z,10.78
2023-02-02T03:55:40.647Z,10.63
2023-02-02T03:57:42.647Z,10.75
2023-02-02T03:59:44.689Z,10.59
2023-02-02T04:01:46.653Z,10.59
2023-02-02T04:03:50.593Z,10.57
2023-02-02T04:05:52.491Z,10.54
2023-02-02T04:07:54.443Z,10.46
2023-02-02T04:09:56.404Z,10.41
2023-02-02T04:11:58.389Z,10.32
2023-02-02T04:14:00.316Z,10.47
2023-02-02T04:16:02.409Z,10.48
2023-02-02T04:18:04.490Z,10.34
2023-02-02T04:20:07.262Z,10.44
2023-02-02T04:22:09.273Z,10.54
2023-02-02T04:24:12.647Z,10.43
2023-02-02T04:26:14.534Z,10.50
2023-02-02T04:28:16.592Z,10.50
2023-02-02T04:30:20.127Z,10.51
2023-02-02T04:32:22.062Z,10.29
2023-02-02T04:34:24.024Z,10.26
2023-02-02T04:36:26.045Z,10.34
2023-02-02T04:38:28.292Z,10.30
2023-02-02T04:40:30.195Z,10.24
2023-02-02T04:42:32.918Z,10.23
2023-02-02T04:44:35.232Z,10.23
2023-02-02T04:46:37.164Z,10.12
2023-02-02T04:48:41.078Z,10.15
2023-02-02T04:50:43.024Z,10.24
2023-02-02T04:52:45.026Z,10.23
2023-02-02T04:54:47.044Z,10.31
2023-02-02T04:56:49.052Z,10.33
2023-02-02T04:58:54.242Z,10.21
2023-02-02T05:00:56.293Z,10.29
2023-02-02T05:02:58.266Z,10.30
2023-02-02T05:05:00.259Z,10.13
2023-02-02T05:07:02.240Z,10.04
2023-02-02T05:09:04.251Z,10.13
2023-02-02T05:11:08.292Z,10.22
2023-02-02T05:13:10.272Z,10.21
2023-02-02T05:15:12.251Z,10.27
2023-02-02T05:17:14.262Z,10.25
2023-02-02T05:19:17.105Z,10.35
2023-02-02T05:21:19.409Z,10.30
2023-02-02T05:23:21.588Z,10.24
2023-02-02T05:25:23.887Z,10.32
2023-02-02T05:27:26.047Z,10.33
2023-02-02T05:29:28.867Z,10.34
2023-02-02T05:31:32.251Z,10.33
2023-02-02T05:33:34.318Z,10.35
2023-02-02T05:35:36.247Z,10.40
2023-02-02T05:37:38.198Z,10.28
2023-02-02T05:39:40.139Z,10.36
2023-02-02T05:41:42.311Z,10.35
2023-02-02T05:43:44.229Z,10.21
2023-02-02T05:45:46.402Z,10.12
2023-02-02T05:47:48.547Z,10.13
2023-02-02T05:49:50.512Z,10.16
2023-02-02T05:51:55.467Z,10.12
2023-02-02T05:53:59.939Z,10.00
2023-02-02T05:56:02.987Z,10.08
2023-02-02T05:58:04.951Z,10.07
2023-02-02T06:00:07.899Z,9.98
2023-02-02T06:02:09.823Z,10.07
2023-02-02T06:04:11.960Z,9.99
2023-02-02T06:06:14.042Z,10.02
2023-02-02T06:08:16.323Z,10.01
2023-02-02T06:10:18.359Z,10.07
2023-02-02T06:12:20.330Z,10.03
2023-02-02T06:14:22.354Z,9.96
2023-02-02T06:16:24.711Z,9.92
2023-02-02T06:18:26.701Z,9.91
2023-02-02T06:20:28.688Z,9.98
2023-02-02T06:22:32.481Z,9.97
2023-02-02T06:24:34.414Z,9.87
2023-02-02T06:26:36.962Z,9.83
2023-02-02T06:28:38.970Z,9.79
2023-02-02T06:30:43.166Z,9.83
2023-02-02T06:32:46.047Z,9.78
2023-02-02T06:34:47.989Z,9.79
2023-02-02T06:36:49.915Z,9.74
2023-02-02T06:38:53.510Z,9.78
2023-02-02T06:40:55.566Z,9.85
2023-02-02T06:42:59.228Z,9.78
2023-02-02T06:45:01.134Z,9.69
2023-02-02T06:47:03.088Z,9.61
2023-02-02T06:49:05.038Z,9.70
2023-02-02T06:51:07.523Z,9.77
2023-02-02T06:53:09.539Z,9.67
2023-02-02T06:55:11.704Z,9.79
2023-02-02T06:57:13.689Z,9.72
2023-02-02T06:59:15.646Z,9.71
2023-02-02T07:01:17.753Z,9.74
2023-02-02T07:03:21.599Z,9.73
2023-02-02T07:05:25.249Z,9.82
2023-02-02T07:07:27.683Z,9.77
2023-02-02T07:09:33.672Z,9.73
2023-02-02T07:11:38.437Z,9.75
2023-02-02T07:13:42.993Z,9.72
2023-02-02T07:15:44.979Z,9.68
2023-02-02T07:17:46.927Z,9.65
2023-02-02T07:19:48.890Z,9.64
2023-02-02T07:21:50.876Z,9.72
2023-02-02T07:23:52.883Z,9.78
2023-02-02T07:26:01.063Z,9.70
2023-02-02T07:28:03.173Z,9.70
2023-02-02T07:30:05.895Z,9.69
2023-02-02T07:32:07.843Z,9.68
2023-02-02T07:34:09.806Z,9.63
2023-02-02T07:36:13.653Z,9.60
2023-02-02T07:38:16.020Z,9.62
2023-02-02T07:40:18.490Z,9.61
2023-02-02T07:42:20.620Z,9.65
2023-02-02T07:44:23.440Z,9.67
2023-02-02T07:46:25.762Z,9.69
2023-02-02T07:48:27.859Z,9.69
2023-02-02T07:50:31.128Z,9.77
2023-02-02T07:52:33.223Z,9.84
2023-02-02T07:54:35.531Z,9.73
2023-02-02T07:56:38.506Z,9.89
2023-02-02T07:58:40.835Z,9.92
2023-02-02T08:00:42.926Z,9.96
2023-02-02T08:02:44.976Z,9.99
2023-02-02T08:04:47.885Z,10.01
2023-02-02T08:06:49.916Z,9.89
2023-02-02T08:08:52.037Z,9.88
2023-02-02T08:10:54.798Z,9.94
2023-02-02T08:12:56.861Z,9.81
2023-02-02T08:14:59.284Z,9.83
2023-02-02T08:17:01.325Z,9.76
2023-02-02T08:19:04.034Z,9.74
2023-02-02T08:21:09.582Z,9.86
2023-02-02T08:23:16.042Z,9.83
2023-02-02T08:25:18.089Z,9.91
2023-02-02T08:27:20.200Z,9.98
2023-02-02T08:29:22.675Z,10.00
2023-02-02T08:31:29.576Z,9.70
2023-02-02T08:33:31.683Z,9.66
2023-02-02T08:35:33.901Z,9.64
2023-02-02T08:37:35.978Z,9.84
2023-02-02T08:39:38.090Z,9.85
2023-02-02T08:41:40.580Z,9.83
2023-02-02T08:43:43.540Z,9.83
2023-02-02T08:46:01.811Z,9.87
2023-02-02T08:48:11.986Z,9.88
2023-02-02T08:50:14.947Z,9.89
2023-02-02T08:52:17.088Z,10.07
2023-02-02T08:54:19.250Z,10.12
2023-02-02T08:56:23.654Z,10.19
2023-02-02T08:58:26.026Z,10.31
2023-02-02T09:00:28.206Z,10.34
2023-02-02T09:02:30.449Z,10.38
2023-02-02T09:04:32.486Z,10.44
2023-02-02T09:06:37.164Z,10.52
2023-02-02T09:08:39.361Z,10.59
2023-02-02T09:10:41.660Z,10.67
2023-02-02T09:12:43.679Z,10.69
2023-02-02T09:14:45.948Z,10.67
2023-02-02T09:16:48.098Z,10.75
2023-02-02T09:18:50.573Z,10.67
2023-02-02T09:20:52.618Z,10.23
2023-02-02T09:22:57.335Z,10.58
2023-02-02T09:24:59.463Z,10.61
2023-02-02T09:27:01.613Z,10.63
2023-02-02T09:29:06.346Z,10.58
2023-02-02T09:31:09.264Z,10.68
2023-02-02T09:33:11.411Z,10.68
2023-02-02T09:35:13.640Z,10.72
2023-02-02T09:37:17.208Z,10.76
2023-02-02T09:39:20.658Z,10.77
2023-02-02T09:41:28.941Z,10.80
2023-02-02T09:43:41.535Z,10.85
2023-02-02T09:45:49.778Z,10.81
2023-02-02T09:47:55.876Z,10.92
2023-02-02T09:50:02.353Z,10.96
2023-02-02T09:52:22.296Z,10.87
2023-02-02T09:54:33.431Z,11.04
2023-02-02T09:56:41.960Z,10.93
2023-02-02T09:58:51.295Z,11.10
2023-02-02T10:00:55.105Z,11.06
2023-02-02T10:03:04.720Z,11.02
2023-02-02T10:05:16.682Z,11.09
2023-02-02T10:07:24.942Z,11.21
2023-02-02T10:09:31.509Z,11.19
2023-02-02T10:11:37.285Z,11.28
2023-02-02T10:13:43.790Z,11.28
2023-02-02T10:15:56.586Z,11.04
2023-02-02T10:18:06.198Z,11.27
2023-02-02T10:20:18.961Z,11.40
2023-02-02T10:22:27.813Z,11.44
2023-02-02T10:24:32.152Z,11.50
2023-02-02T10:26:39.405Z,11.60
2023-02-02T10:28:46.049Z,11.71
2023-02-02T10:30:59.935Z,11.73
2023-02-02T10:33:06.217Z,11.86
2023-02-02T10:35:20.924Z,11.88
2023-02-02T10:37:23.994Z,11.89
2023-02-02T10:39:32.477Z,11.98
2023-02-02T10:41:46.022Z,12.01
2023-02-02T10:43:49.929Z,11.78
2023-02-02T10:45:52.453Z,11.94
2023-02-02T10:47:54.783Z,11.99
2023-02-02T10:50:05.331Z,11.93
2023-02-02T10:52:11.981Z,12.03
2023-02-02T10:54:20.224Z,12.13
2023-02-02T10:56:31.813Z,12.11
2023-02-02T10:58:41.482Z,12.05
2023-02-02T11:00:47.351Z,12.06
2023-02-02T11:02:50.862Z,12.11
2023-02-02T11:04:56.063Z,11.98
2023-02-02T11:07:01.158Z,12.04
2023-02-02T11:09:05.298Z,12.11
2023-02-02T11:11:13.542Z,12.13
2023-02-02T11:13:23.884Z,12.04
2023-02-02T11:15:30.444Z,12.10
2023-02-02T11:17:33.720Z,12.12
2023-02-02T11:19:35.987Z,12.14
2023-02-02T11:21:38.549Z,12.27
2023-02-02T11:23:41.067Z,12.33
2023-02-02T11:25:43.471Z,12.36
2023-02-02T11:27:46.968Z,12.41
2023-02-02T11:29:53.623Z,12.31
2023-02-02T11:31:56.092Z,12.51
2023-02-02T11:34:09.545Z,12.38
2023-02-02T11:36:22.112Z,12.60
2023-02-02T11:38:24.705Z,12.60
2023-02-02T11:40:28.909Z,12.65
2023-02-02T11:42:31.202Z,12.76
2023-02-02T11:44:35.944Z,12.81
2023-02-02T11:46:38.969Z,12.88
2023-02-02T11:48:50.372Z,13.12
2023-02-02T11:50:55.151Z,13.05
2023-02-02T11:52:58.241Z,13.09
2023-02-02T11:55:03.021Z,13.02
2023-02-02T11:57:09.703Z,13.20
2023-02-02T11:59:22.743Z,13.29
2023-02-02T12:01:27.817Z,13.37
2023-02-02T12:03:36.058Z,13.43
2023-02-02T12:05:38.624Z,13.40
2023-02-02T12:07:43.105Z,13.46
2023-02-02T12:09:45.385Z,13.29
2023-02-02T12:11:54.041Z,13.43
2023-02-02T12:13:59.217Z,13.51
2023-02-02T12:16:03.256Z,13.38
2023-02-02T12:18:10.009Z,13.49
2023-02-02T12:20:15.840Z,13.40
2023-02-02T12:22:24.243Z,13.47
2023-02-02T12:24:32.781Z,13.48
2023-02-02T12:26:37.458Z,13.25
2023-02-02T12:28:41.533Z,13.34
2023-02-02T12:30:50.154Z,13.16
2023-02-02T12:32:58.446Z,13.29
2023-02-02T12:35:11.408Z,13.29
2023-02-02T12:37:19.879Z,13.39
2023-02-02T12:39:34.562Z,13.29
2023-02-02T12:41:47.962Z,13.40
2023-02-02T12:43:56.058Z,13.34
2023-02-02T12:46:06.499Z,13.46
2023-02-02T12:48:11.797Z,13.40
2023-02-02T12:50:21.352Z,13.48
2023-02-02T12:52:26.913Z,13.33
2023-02-02T12:54:40.772Z,13.31
2023-02-02T12:56:52.804Z,13.47
2023-02-02T12:58:59.479Z,13.32
2023-02-02T13:01:07.917Z,13.23
2023-02-02T13:03:13.504Z,13.19
2023-02-02T13:05:20.250Z,13.27
2023-02-02T13:07:28.750Z,13.10
2023-02-02T13:09:39.342Z,13.23
2023-02-02T13:11:50.835Z,13.13
2023-02-02T13:13:52.977Z,13.19
2023-02-02T13:16:00.441Z,13.22
2023-02-02T13:18:10.999Z,13.21
2023-02-02T13:20:19.481Z,13.30
2023-02-02T13:22:28.888Z,13.34
2023-02-02T13:24:35.065Z,13.31
2023-02-02T13:26:41.272Z,13.15
2023-02-02T13:28:49.670Z,13.14
2023-02-02T13:30:53.689Z,13.10
2023-02-02T13:33:01.228Z,13.07
2023-02-02T13:35:04.559Z,12.99
2023-02-02T13:37:17.232Z,13.01
2023-02-02T13:39:25.643Z,13.10
2023-02-02T13:41:29.555Z,13.23
2023-02-02T13:43:39.799Z,13.19
2023-02-02T13:45:46.449Z,13.22
2023-02-02T13:48:01.706Z,13.04
2023-02-02T13:50:12.702Z,13.21
2023-02-02T13:52:18.441Z,13.23
2023-02-02T13:54:26.921Z,13.14
2023-02-02T13:56:37.945Z,13.21
2023-02-02T13:58:46.516Z,13.29
2023-02-02T14:00:56.116Z,13.33
2023-02-02T14:03:04.195Z,13.09
2023-02-02T14:05:07.828Z,13.15
2023-02-02T14:07:10.871Z,13.22
2023-02-02T14:09:19.046Z,12.94
2023-02-02T14:11:26.878Z,12.98
2023-02-02T14:13:41.668Z,13.05
2023-02-02T14:15:45.116Z,12.90
2023-02-02T14:17:47.965Z,12.87
2023-02-02T14:19:56.380Z,12.80
2023-02-02T14:22:05.250Z,12.87
2023-02-02T14:24:13.595Z,12.89
2023-02-02T14:26:20.489Z,12.93
2023-02-02T14:28:29.099Z,13.04
2023-02-02T14:30:35.012Z,13.19
2023-02-02T14:32:43.228Z,13.18
2023-02-02T14:34:45.683Z,13.23
2023-02-02T14:36:57.073Z,13.25
2023-02-02T14:39:08.323Z,13.29
2023-02-02T14:41:43.224Z,13.27
2023-02-02T14:43:51.229Z,13.12
2023-02-02T14:45:59.671Z,13.16
2023-02-02T14:48:11.487Z,13.19
2023-02-02T14:50:19.944Z,13.13
2023-02-02T14:52:24.132Z,13.05
2023-02-02T14:54:32.038Z,13.19
2023-02-02T14:56:40.595Z,13.29
2023-02-02T14:58:46.555Z,13.10
2023-02-02T15:00:59.324Z,13.24
2023-02-02T15:03:08.487Z,13.25
2023-02-02T15:05:22.721Z,13.24
2023-02-02T15:07:25.939Z,13.32
2023-02-02T15:09:37.145Z,13.36
2023-02-02T15:11:51.052Z,13.45
2023-02-02T15:13:59.499Z,13.52
2023-02-02T15:16:14.252Z,13.27
2023-02-02T15:18:25.793Z,13.24
2023-02-02T15:20:28.983Z,13.36
2023-02-02T15:22:38.244Z,13.23
2023-02-02T15:24:41.045Z,13.29
2023-02-02T15:26:45.733Z,13.41
2023-02-02T15:28:55.183Z,13.20
2023-02-02T15:31:04.118Z,13.28
2023-02-02T15:33:27.570Z,13.26
2023-02-02T15:35:32.448Z,13.28
2023-02-02T15:37:40.687Z,13.23
2023-02-02T15:39:49.281Z,13.26
2023-02-02T15:42:15.302Z,13.19
2023-02-02T15:44:21.120Z,13.08
2023-02-02T15:46:28.124Z,13.13
2023-02-02T15:48:32.701Z,13.14
2023-02-02T15:50:35.349Z,13.17
2023-02-02T15:52:47.549Z,13.17
2023-02-02T15:54:53.020Z,13.22
2023-02-02T15:56:57.153Z,13.17
2023-02-02T15:59:00.804Z,13.18
2023-02-02T16:01:06.959Z,13.21
2023-02-02T16:03:18.648Z,13.17
2023-02-02T16:05:26.064Z,13.19
2023-02-02T16:07:32.458Z,13.26
2023-02-02T16:09:37.099Z,13.24
2023-02-02T16:11:42.739Z,13.18
2023-02-02T16:13:54.639Z,13.19
2023-02-02T16:16:00.462Z,13.11
2023-02-02T16:18:08.089Z,13.15
2023-02-02T16:20:14.870Z,13.25
2023-02-02T16:22:21.565Z,13.20
2023-02-02T16:24:30.025Z,13.17
2023-02-02T16:26:35.176Z,13.26
2023-02-02T16:28:37.561Z,13.26
2023-02-02T16:30:40.257Z,13.25
2023-02-02T16:32:44.375Z,13.28
2023-02-02T16:34:47.336Z,13.21
2023-02-02T16:36:55.991Z,13.18
2023-02-02T16:39:01.216Z,13.20
2023-02-02T16:41:06.339Z,13.23
2023-02-02T16:43:14.607Z,13.17
2023-02-02T16:45:23.276Z,13.23
2023-02-02T16:47:26.355Z,13.23
2023-02-02T16:49:30.175Z,13.23
2023-02-02T16:51:34.124Z,13.21
2023-02-02T16:53:37.381Z,13.14
2023-02-02T16:55:50.570Z,13.17
2023-02-02T16:57:53.778Z,13.15
2023-02-02T17:00:00.516Z,13.24
2023-02-02T17:02:20.332Z,13.17
2023-02-02T17:04:27.153Z,13.26
2023-02-02T17:06:50.154Z,13.35
2023-02-02T17:08:54.224Z,13.29
2023-02-02T17:11:02.953Z,13.29
2023-02-02T17:13:27.961Z,13.31
2023-02-02T17:15:34.818Z,13.22
2023-02-02T17:17:37.679Z,13.30
2023-02-02T17:19:39.860Z,13.33
2023-02-02T17:21:42.552Z,13.25
2023-02-02T17:23:45.220Z,13.29
2023-02-02T17:25:48.203Z,13.24
2023-02-02T17:27:50.501Z,13.15
2023-02-02T17:29:54.024Z,13.27
2023-02-02T17:31:57.090Z,13.18
2023-02-02T17:33:59.309Z,13.22
2023-02-02T17:36:01.968Z,13.14
2023-02-02T17:38:04.310Z,13.14
2023-02-02T17:40:07.506Z,13.23
2023-02-02T17:42:20.683Z,13.22
2023-02-02T17:44:23.092Z,13.25
2023-02-02T17:46:28.680Z,13.24
2023-02-02T17:48:30.998Z,13.18
2023-02-02T17:50:36.726Z,13.21
2023-02-02T17:52:39.478Z,13.18
2023-02-02T17:54:41.898Z,12.96
2023-02-02T17:56:44.562Z,12.92
2023-02-02T17:58:47.024Z,12.97
2023-02-02T18:00:54.237Z,13.00
2023-02-02T18:03:02.400Z,13.01
2023-02-02T18:05:06.177Z,12.99
2023-02-02T18:07:09.766Z,12.99
2023-02-02T18:09:12.132Z,12.80
2023-02-02T18:11:15.378Z,12.83
2023-02-02T18:13:20.264Z,12.98
2023-02-02T18:15:23.111Z,12.91
2023-02-02T18:17:25.843Z,12.90
2023-02-02T18:19:28.191Z,12.98
2023-02-02T18:21:32.096Z,13.04
2023-02-02T18:23:34.333Z,13.00
2023-02-02T18:25:37.951Z,12.95
2023-02-02T18:27:40.177Z,12.76
2023-02-02T18:29:43.024Z,12.87
2023-02-02T18:31:45.346Z,12.98
2023-02-02T18:33:48.187Z,12.95
2023-02-02T18:35:50.671Z,12.89
2023-02-02T18:37:52.879Z,12.99
2023-02-02T18:39:55.097Z,12.92
2023-02-02T18:41:57.718Z,13.01
2023-02-02T18:43:59.946Z,12.96
2023-02-02T18:46:04.909Z,12.91
2023-02-02T18:48:07.396Z,12.76
2023-02-02T18:50:10.555Z,12.88
2023-02-02T18:52:12.843Z,12.85
2023-02-02T18:54:15.273Z,12.69
2023-02-02T18:56:18.150Z,12.78
2023-02-02T18:58:20.800Z,12.88
2023-02-02T19:00:23.326Z,12.79
2023-02-02T19:02:26.324Z,12.74
2023-02-02T19:04:28.509Z,12.73
2023-02-02T19:06:33.717Z,12.57
2023-02-02T19:08:36.041Z,12.52
2023-02-02T19:10:38.061Z,12.70
2023-02-02T19:12:40.318Z,12.62
2023-02-02T19:14:43.472Z,12.66
2023-02-02T19:16:47.738Z,12.54
2023-02-02T19:18:50.259Z,12.73
2023-02-02T19:20:52.807Z,12.72
2023-02-02T19:23:01.023Z,12.43
2023-02-02T19:25:13.910Z,12.50
2023-02-02T19:27:20.550Z,12.46
2023-02-02T19:29:25.189Z,12.52
2023-02-02T19:31:28.267Z,12.57
2023-02-02T19:33:39.620Z,12.40
2023-02-02T19:35:46.709Z,12.62
2023-02-02T19:37:50.345Z,12.64
2023-02-02T19:40:07.496Z,12.48
2023-02-02T19:42:12.106Z,12.49
2023-02-02T19:44:18.866Z,12.40
2023-02-02T19:46:24.218Z,12.40
2023-02-02T19:48:31.524Z,12.45
2023-02-02T19:50:41.361Z,12.41
2023-02-02T19:52:43.398Z,12.52
2023-02-02T19:54:49.139Z,12.58
2023-02-02T19:56:54.327Z,12.50
2023-02-02T19:58:56.405Z,12.56
2023-02-02T20:00:59.441Z,12.65
2023-02-02T20:03:06.949Z,12.62
2023-02-02T20:05:12.709Z,12.61
2023-02-02T20:07:15.362Z,12.78
2023-02-02T20:09:19.861Z,12.51
2023-02-02T20:11:32.366Z,12.60
2023-02-02T20:13:39.519Z,12.69
2023-02-02T20:15:41.900Z,12.72
2023-02-02T20:17:43.963Z,12.63
2023-02-02T20:19:47.247Z,12.81
2023-02-02T20:21:51.517Z,12.88
2023-02-02T20:23:53.704Z,12.94
2023-02-02T20:25:56.051Z,12.93
2023-02-02T20:27:59.824Z,13.00
2023-02-02T20:30:18.960Z,13.00
2023-02-02T20:32:26.759Z,13.08
2023-02-02T20:34:33.322Z,13.12
2023-02-02T20:36:39.303Z,13.12
2023-02-02T20:38:41.367Z,12.91
2023-02-02T20:40:43.351Z,12.99
2023-02-02T20:42:46.606Z,12.93
2023-02-02T20:44:49.228Z,12.89
2023-02-02T20:46:51.362Z,12.95
2023-02-02T20:48:53.385Z,12.78
2023-02-02T20:50:55.442Z,12.72
2023-02-02T20:52:59.846Z,12.80
2023-02-02T20:55:01.936Z,12.47
2023-02-02T20:57:04.613Z,12.66
2023-02-02T20:59:07.500Z,12.67
2023-02-02T21:01:09.718Z,12.61
2023-02-02T21:03:13.411Z,12.46
2023-02-02T21:05:15.772Z,12.48
2023-02-02T21:07:19.970Z,12.59
2023-02-02T21:09:22.206Z,12.44
2023-02-02T21:11:24.519Z,12.33
2023-02-02T21:13:26.599Z,12.38
2023-02-02T21:15:29.137Z,12.52
2023-02-02T21:17:31.269Z,12.52
2023-02-02T21:19:33.514Z,12.54
2023-02-02T21:21:35.904Z,12.49
2023-02-02T21:23:38.316Z,12.33
2023-02-02T21:25:40.531Z,12.48
2023-02-02T21:27:42.668Z,12.45
2023-02-02T21:29:44.753Z,12.40
2023-02-02T21:31:47.060Z,12.43
2023-02-02T21:33:50.814Z,12.61
2023-02-02T21:35:52.906Z,12.69
2023-02-02T21:37:58.117Z,12.56
2023-02-02T21:40:00.301Z,12.52
2023-02-02T21:42:08.573Z,12.50
2023-02-02T21:44:16.515Z,12.59
2023-02-02T21:46:21.454Z,12.67
2023-02-02T21:48:32.990Z,12.63
2023-02-02T21:50:37.867Z,12.49
2023-02-02T21:52:40.096Z,12.64
2023-02-02T21:54:42.774Z,12.51
2023-02-02T21:56:44.864Z,12.64
2023-02-02T21:58:47.931Z,12.60
2023-02-02T22:00:50.816Z,12.45
2023-02-02T22:02:54.182Z,12.52
2023-02-02T22:05:00.398Z,12.54
2023-02-02T22:07:14.009Z,12.42
2023-02-02T22:09:20.618Z,12.46
2023-02-02T22:11:30.072Z,12.47
2023-02-02T22:13:35.687Z,12.54
2023-02-02T22:15:39.040Z,12.56
2023-02-02T22:17:43.805Z,12.46
2023-02-02T22:19:46.003Z,12.44
2023-02-02T22:21:48.107Z,12.48
2023-02-02T22:23:50.266Z,12.50
2023-02-02T22:25:55.231Z,12.46
2023-02-02T22:28:00.605Z,12.24
2023-02-02T22:30:21.277Z,12.21
2023-02-02T22:32:23.346Z,12.21
2023-02-02T22:34:25.361Z,12.23
2023-02-02T22:36:27.413Z,12.20
2023-02-02T22:38:29.420Z,12.06
2023-02-02T22:40:31.949Z,12.09
2023-02-02T22:42:33.986Z,12.20
2023-02-02T22:44:36.083Z,12.06
2023-02-02T22:46:38.128Z,12.14
2023-02-02T22:48:40.133Z,12.07
2023-02-02T22:50:42.442Z,11.94
2023-02-02T22:52:44.914Z,12.00
2023-02-02T22:54:47.130Z,11.99
2023-02-02T22:56:49.209Z,11.98
2023-02-02T22:58:51.208Z,11.93
2023-02-02T23:00:53.275Z,11.91
2023-02-02T23:02:56.204Z,11.93
2023-02-02T23:04:58.313Z,11.82
2023-02-02T23:07:00.338Z,11.82
2023-02-02T23:09:02.440Z,11.88
2023-02-02T23:11:04.402Z,12.00
2023-02-02T23:13:06.748Z,11.83
2023-02-02T23:15:10.176Z,11.83
2023-02-02T23:17:12.246Z,11.94
2023-02-02T23:19:14.240Z,11.97
2023-02-02T23:21:17.334Z,11.94
2023-02-02T23:23:19.332Z,11.99
2023-02-02T23:25:22.206Z,12.04
2023-02-02T23:27:24.415Z,11.85
2023-02-02T23:29:26.626Z,11.97
2023-02-02T23:31:28.764Z,11.98
2023-02-02T23:33:31.238Z,11.99
2023-02-02T23:35:33.193Z,11.93
2023-02-02T23:37:34.971Z,11.87
2023-02-02T23:39:41.439Z,11.91
2023-02-02T23:41:43.324Z,11.84
2023-02-02T23:43:45.124Z,11.72
2023-02-02T23:45:47.015Z,11.81
2023-02-02T23:47:48.897Z,11.78
2023-02-02T23:49:51.109Z,11.76
2023-02-02T23:51:52.941Z,11.69
2023-02-02T23:53:55.851Z,11.72
2023-02-02T23:55:57.685Z,11.83
2023-02-02T23:58:00.106Z,11.86
